sensor_id;sensor_type;location;lat;lon;timestamp;P1;durP1;ratioP1;P2;durP2;ratioP2
79365;SDS011;68833;53.160;17.920;2023-10-09T00:02:12;2.30;;;1.70;;
79365;SDS011;68833;53.160;17.920;2023-10-09T00:04:41;2.00;;;1.30;;
79365;SDS011;68833;53.160;17.920;2023-10-09T00:07:10;1.50;;;1.40;;
79365;SDS011;68833;53.160;17.920;2023-10-09T00:09:38;2.70;;;1.60;;
79365;SDS011;68833;53.160;17.920;2023-10-09T00:14:53;3.00;;;1.50;;
79365;SDS011;68833;53.160;17.920;2023-10-09T00:17:22;1.80;;;1.60;;
79365;SDS011;68833;53.160;17.920;2023-10-09T00:19:50;1.90;;;1.20;;
79365;SDS011;68833;53.160;17.920;2023-10-09T00:22:27;1.90;;;1.30;;
79365;SDS011;68833;53.160;17.920;2023-10-09T00:24:57;1.70;;;1.20;;
79365;SDS011;68833;53.160;17.920;2023-10-09T00:27:42;1.20;;;0.90;;
79365;SDS011;68833;53.160;17.920;2023-10-09T00:30:11;2.00;;;1.40;;
79365;SDS011;68833;53.160;17.920;2023-10-09T00:32:47;2.20;;;1.40;;
79365;SDS011;68833;53.160;17.920;2023-10-09T00:35:37;2.00;;;1.40;;
79365;SDS011;68833;53.160;17.920;2023-10-09T00:38:11;1.80;;;1.40;;
79365;SDS011;68833;53.160;17.920;2023-10-09T00:40:48;1.90;;;1.40;;
79365;SDS011;68833;53.160;17.920;2023-10-09T00:43:34;1.60;;;1.30;;
79365;SDS011;68833;53.160;17.920;2023-10-09T00:46:04;2.00;;;1.30;;
79365;SDS011;68833;53.160;17.920;2023-10-09T00:48:56;2.80;;;1.30;;
79365;SDS011;68833;53.160;17.920;2023-10-09T00:51:29;1.80;;;1.30;;
79365;SDS011;68833;53.160;17.920;2023-10-09T00:54:02;1.80;;;1.10;;
79365;SDS011;68833;53.160;17.920;2023-10-09T00:56:40;1.70;;;1.20;;
79365;SDS011;68833;53.160;17.920;2023-10-09T00:59:19;1.50;;;1.10;;
79365;SDS011;68833;53.160;17.920;2023-10-09T01:01:47;1.20;;;1.10;;
79365;SDS011;68833;53.160;17.920;2023-10-09T01:04:24;1.30;;;1.00;;
79365;SDS011;68833;53.160;17.920;2023-10-09T01:06:55;2.60;;;1.30;;
79365;SDS011;68833;53.160;17.920;2023-10-09T01:09:48;1.50;;;1.00;;
79365;SDS011;68833;53.160;17.920;2023-10-09T01:12:20;1.30;;;0.90;;
79365;SDS011;68833;53.160;17.920;2023-10-09T01:14:50;1.50;;;1.20;;
79365;SDS011;68833;53.160;17.920;2023-10-09T01:17:29;1.50;;;1.10;;
79365;SDS011;68833;53.160;17.920;2023-10-09T01:20:02;1.70;;;1.30;;
79365;SDS011;68833;53.160;17.920;2023-10-09T01:22:42;2.10;;;1.50;;
79365;SDS011;68833;53.160;17.920;2023-10-09T01:25:10;1.50;;;1.10;;
79365;SDS011;68833;53.160;17.920;2023-10-09T01:27:38;1.50;;;1.30;;
79365;SDS011;68833;53.160;17.920;2023-10-09T01:30:07;1.90;;;1.50;;
79365;SDS011;68833;53.160;17.920;2023-10-09T01:32:41;1.70;;;1.40;;
79365;SDS011;68833;53.160;17.920;2023-10-09T01:35:10;1.80;;;1.10;;
79365;SDS011;68833;53.160;17.920;2023-10-09T01:37:48;1.70;;;1.50;;
79365;SDS011;68833;53.160;17.920;2023-10-09T01:43:11;2.00;;;1.40;;
79365;SDS011;68833;53.160;17.920;2023-10-09T01:45:42;2.00;;;1.60;;
79365;SDS011;68833;53.160;17.920;2023-10-09T01:48:13;1.60;;;1.40;;
79365;SDS011;68833;53.160;17.920;2023-10-09T01:50:45;2.10;;;1.60;;
79365;SDS011;68833;53.160;17.920;2023-10-09T01:55:44;1.70;;;1.40;;
79365;SDS011;68833;53.160;17.920;2023-10-09T01:58:12;1.80;;;1.40;;
79365;SDS011;68833;53.160;17.920;2023-10-09T02:00:48;1.50;;;1.30;;
79365;SDS011;68833;53.160;17.920;2023-10-09T02:03:20;1.90;;;1.60;;
79365;SDS011;68833;53.160;17.920;2023-10-09T02:05:52;1.80;;;1.30;;
79365;SDS011;68833;53.160;17.920;2023-10-09T02:08:26;1.60;;;1.30;;
79365;SDS011;68833;53.160;17.920;2023-10-09T02:13:29;1.90;;;1.50;;
79365;SDS011;68833;53.160;17.920;2023-10-09T02:15:56;1.40;;;1.30;;
79365;SDS011;68833;53.160;17.920;2023-10-09T02:18:42;2.10;;;1.40;;
79365;SDS011;68833;53.160;17.920;2023-10-09T02:21:25;1.30;;;1.10;;
79365;SDS011;68833;53.160;17.920;2023-10-09T02:23:58;1.50;;;1.20;;
79365;SDS011;68833;53.160;17.920;2023-10-09T02:26:29;2.10;;;1.10;;
79365;SDS011;68833;53.160;17.920;2023-10-09T02:29:19;1.40;;;1.10;;
79365;SDS011;68833;53.160;17.920;2023-10-09T02:31:50;1.90;;;1.10;;
79365;SDS011;68833;53.160;17.920;2023-10-09T02:34:27;1.50;;;1.10;;
79365;SDS011;68833;53.160;17.920;2023-10-09T02:36:55;1.80;;;1.40;;
79365;SDS011;68833;53.160;17.920;2023-10-09T02:39:33;1.80;;;1.40;;
79365;SDS011;68833;53.160;17.920;2023-10-09T02:42:14;1.20;;;1.10;;
79365;SDS011;68833;53.160;17.920;2023-10-09T02:44:41;3.00;;;1.30;;
79365;SDS011;68833;53.160;17.920;2023-10-09T02:47:17;1.80;;;1.40;;
79365;SDS011;68833;53.160;17.920;2023-10-09T02:49:52;1.60;;;1.20;;
79365;SDS011;68833;53.160;17.920;2023-10-09T02:52:19;1.80;;;1.30;;
79365;SDS011;68833;53.160;17.920;2023-10-09T02:54:51;1.60;;;1.30;;
79365;SDS011;68833;53.160;17.920;2023-10-09T02:57:26;1.50;;;1.30;;
79365;SDS011;68833;53.160;17.920;2023-10-09T03:00:03;1.60;;;1.30;;
79365;SDS011;68833;53.160;17.920;2023-10-09T03:02:35;2.00;;;1.70;;
79365;SDS011;68833;53.160;17.920;2023-10-09T03:05:06;3.70;;;1.60;;
79365;SDS011;68833;53.160;17.920;2023-10-09T03:07:38;1.50;;;1.30;;
79365;SDS011;68833;53.160;17.920;2023-10-09T03:10:06;2.50;;;1.50;;
79365;SDS011;68833;53.160;17.920;2023-10-09T03:12:36;2.10;;;1.80;;
79365;SDS011;68833;53.160;17.920;2023-10-09T03:15:05;2.10;;;1.80;;
79365;SDS011;68833;53.160;17.920;2023-10-09T03:17:35;2.50;;;2.10;;
79365;SDS011;68833;53.160;17.920;2023-10-09T03:20:05;2.30;;;1.60;;
79365;SDS011;68833;53.160;17.920;2023-10-09T03:22:39;3.30;;;2.10;;
79365;SDS011;68833;53.160;17.920;2023-10-09T03:25:07;2.40;;;2.20;;
79365;SDS011;68833;53.160;17.920;2023-10-09T03:27:38;3.60;;;2.20;;
79365;SDS011;68833;53.160;17.920;2023-10-09T03:30:12;2.60;;;2.00;;
79365;SDS011;68833;53.160;17.920;2023-10-09T03:32:59;2.10;;;1.70;;
79365;SDS011;68833;53.160;17.920;2023-10-09T03:35:27;1.80;;;1.60;;
79365;SDS011;68833;53.160;17.920;2023-10-09T03:37:57;2.80;;;2.10;;
79365;SDS011;68833;53.160;17.920;2023-10-09T03:40:27;2.70;;;1.80;;
79365;SDS011;68833;53.160;17.920;2023-10-09T03:42:54;2.20;;;2.00;;
79365;SDS011;68833;53.160;17.920;2023-10-09T03:45:21;2.10;;;1.70;;
79365;SDS011;68833;53.160;17.920;2023-10-09T03:47:52;2.10;;;1.60;;
79365;SDS011;68833;53.160;17.920;2023-10-09T03:50:28;2.20;;;1.60;;
79365;SDS011;68833;53.160;17.920;2023-10-09T03:53:02;1.90;;;1.70;;
79365;SDS011;68833;53.160;17.920;2023-10-09T03:55:34;1.90;;;1.40;;
79365;SDS011;68833;53.160;17.920;2023-10-09T03:58:02;2.40;;;1.80;;
79365;SDS011;68833;53.160;17.920;2023-10-09T04:00:29;3.20;;;2.30;;
79365;SDS011;68833;53.160;17.920;2023-10-09T04:02:57;2.70;;;2.50;;
79365;SDS011;68833;53.160;17.920;2023-10-09T04:05:25;2.70;;;2.40;;
79365;SDS011;68833;53.160;17.920;2023-10-09T04:07:53;2.40;;;1.60;;
79365;SDS011;68833;53.160;17.920;2023-10-09T04:10:24;2.30;;;1.80;;
79365;SDS011;68833;53.160;17.920;2023-10-09T04:13:10;2.00;;;1.80;;
79365;SDS011;68833;53.160;17.920;2023-10-09T04:15:43;3.10;;;1.90;;
79365;SDS011;68833;53.160;17.920;2023-10-09T04:18:10;2.00;;;1.60;;
79365;SDS011;68833;53.160;17.920;2023-10-09T04:20:42;2.60;;;2.00;;
79365;SDS011;68833;53.160;17.920;2023-10-09T04:23:10;2.90;;;2.20;;
79365;SDS011;68833;53.160;17.920;2023-10-09T04:25:42;3.10;;;2.40;;
79365;SDS011;68833;53.160;17.920;2023-10-09T04:28:12;3.30;;;3.00;;
79365;SDS011;68833;53.160;17.920;2023-10-09T04:30:41;4.50;;;3.80;;
79365;SDS011;68833;53.160;17.920;2023-10-09T04:33:13;3.80;;;3.30;;
79365;SDS011;68833;53.160;17.920;2023-10-09T04:36:07;3.50;;;3.20;;
79365;SDS011;68833;53.160;17.920;2023-10-09T04:38:47;4.30;;;3.10;;
79365;SDS011;68833;53.160;17.920;2023-10-09T04:44:08;3.30;;;2.90;;
79365;SDS011;68833;53.160;17.920;2023-10-09T04:51:55;3.90;;;2.60;;
79365;SDS011;68833;53.160;17.920;2023-10-09T04:54:48;2.70;;;2.20;;
79365;SDS011;68833;53.160;17.920;2023-10-09T04:57:33;4.70;;;2.80;;
79365;SDS011;68833;53.160;17.920;2023-10-09T05:00:27;12.00;;;7.90;;
79365;SDS011;68833;53.160;17.920;2023-10-09T05:02:54;29.00;;;18.10;;
79365;SDS011;68833;53.160;17.920;2023-10-09T05:05:31;27.30;;;15.70;;
79365;SDS011;68833;53.160;17.920;2023-10-09T05:10:47;6.10;;;4.30;;
79365;SDS011;68833;53.160;17.920;2023-10-09T05:16:15;4.20;;;2.10;;
79365;SDS011;68833;53.160;17.920;2023-10-09T05:18:52;2.90;;;2.40;;
79365;SDS011;68833;53.160;17.920;2023-10-09T05:21:24;2.50;;;2.30;;
79365;SDS011;68833;53.160;17.920;2023-10-09T05:24:01;2.70;;;2.30;;
79365;SDS011;68833;53.160;17.920;2023-10-09T05:26:43;2.70;;;2.30;;
79365;SDS011;68833;53.160;17.920;2023-10-09T05:32:00;6.30;;;3.70;;
79365;SDS011;68833;53.160;17.920;2023-10-09T05:34:31;13.60;;;7.70;;
79365;SDS011;68833;53.160;17.920;2023-10-09T05:37:18;13.00;;;8.60;;
79365;SDS011;68833;53.160;17.920;2023-10-09T05:39:49;20.70;;;12.60;;
79365;SDS011;68833;53.160;17.920;2023-10-09T05:42:29;4.80;;;3.30;;
79365;SDS011;68833;53.160;17.920;2023-10-09T05:45:12;3.70;;;2.50;;
79365;SDS011;68833;53.160;17.920;2023-10-09T05:47:59;2.80;;;2.00;;
79365;SDS011;68833;53.160;17.920;2023-10-09T05:50:44;3.20;;;2.20;;
79365;SDS011;68833;53.160;17.920;2023-10-09T05:53:38;4.80;;;3.30;;
79365;SDS011;68833;53.160;17.920;2023-10-09T05:56:11;5.60;;;3.40;;
79365;SDS011;68833;53.160;17.920;2023-10-09T05:58:57;6.30;;;4.10;;
79365;SDS011;68833;53.160;17.920;2023-10-09T06:01:43;8.90;;;6.50;;
79365;SDS011;68833;53.160;17.920;2023-10-09T06:04:22;2.90;;;2.20;;
79365;SDS011;68833;53.160;17.920;2023-10-09T06:07:09;2.00;;;1.50;;
79365;SDS011;68833;53.160;17.920;2023-10-09T06:09:40;2.70;;;1.70;;
79365;SDS011;68833;53.160;17.920;2023-10-09T06:12:16;2.30;;;1.70;;
79365;SDS011;68833;53.160;17.920;2023-10-09T06:14:58;2.10;;;1.80;;
79365;SDS011;68833;53.160;17.920;2023-10-09T06:17:47;2.50;;;1.90;;
79365;SDS011;68833;53.160;17.920;2023-10-09T06:23:13;2.50;;;1.80;;
79365;SDS011;68833;53.160;17.920;2023-10-09T06:28:18;1.70;;;1.50;;
79365;SDS011;68833;53.160;17.920;2023-10-09T06:30:59;2.30;;;1.90;;
79365;SDS011;68833;53.160;17.920;2023-10-09T06:33:46;2.10;;;1.90;;
79365;SDS011;68833;53.160;17.920;2023-10-09T06:36:41;3.30;;;3.00;;
79365;SDS011;68833;53.160;17.920;2023-10-09T06:39:19;2.30;;;1.90;;
79365;SDS011;68833;53.160;17.920;2023-10-09T06:42:04;3.00;;;2.20;;
79365;SDS011;68833;53.160;17.920;2023-10-09T06:45:10;7.00;;;5.50;;
79365;SDS011;68833;53.160;17.920;2023-10-09T06:47:41;5.50;;;4.60;;
79365;SDS011;68833;53.160;17.920;2023-10-09T06:50:19;2.80;;;2.50;;
79365;SDS011;68833;53.160;17.920;2023-10-09T06:52:49;3.40;;;2.50;;
79365;SDS011;68833;53.160;17.920;2023-10-09T06:55:36;6.20;;;4.60;;
79365;SDS011;68833;53.160;17.920;2023-10-09T06:58:15;4.70;;;3.70;;
79365;SDS011;68833;53.160;17.920;2023-10-09T07:00:49;4.20;;;3.50;;
79365;SDS011;68833;53.160;17.920;2023-10-09T07:03:26;3.60;;;3.30;;
79365;SDS011;68833;53.160;17.920;2023-10-09T07:06:11;3.90;;;3.40;;
79365;SDS011;68833;53.160;17.920;2023-10-09T07:08:50;5.40;;;3.80;;
79365;SDS011;68833;53.160;17.920;2023-10-09T07:11:39;3.90;;;3.30;;
79365;SDS011;68833;53.160;17.920;2023-10-09T07:14:14;4.10;;;2.90;;
79365;SDS011;68833;53.160;17.920;2023-10-09T07:17:04;3.30;;;2.60;;
79365;SDS011;68833;53.160;17.920;2023-10-09T07:19:51;3.20;;;2.40;;
79365;SDS011;68833;53.160;17.920;2023-10-09T07:22:21;2.50;;;2.10;;
79365;SDS011;68833;53.160;17.920;2023-10-09T07:24:57;3.40;;;2.40;;
79365;SDS011;68833;53.160;17.920;2023-10-09T07:27:25;2.60;;;2.10;;
79365;SDS011;68833;53.160;17.920;2023-10-09T07:32:58;3.80;;;2.30;;
79365;SDS011;68833;53.160;17.920;2023-10-09T07:38:15;3.10;;;2.60;;
79365;SDS011;68833;53.160;17.920;2023-10-09T07:43:33;2.60;;;2.00;;
79365;SDS011;68833;53.160;17.920;2023-10-09T07:48:59;3.00;;;2.40;;
79365;SDS011;68833;53.160;17.920;2023-10-09T07:51:38;2.80;;;2.20;;
79365;SDS011;68833;53.160;17.920;2023-10-09T07:54:10;3.30;;;2.90;;
79365;SDS011;68833;53.160;17.920;2023-10-09T07:56:41;2.50;;;2.20;;
79365;SDS011;68833;53.160;17.920;2023-10-09T07:59:13;2.80;;;2.40;;
79365;SDS011;68833;53.160;17.920;2023-10-09T08:01:45;2.50;;;2.20;;
79365;SDS011;68833;53.160;17.920;2023-10-09T08:04:22;2.30;;;2.10;;
79365;SDS011;68833;53.160;17.920;2023-10-09T08:07:04;3.30;;;2.90;;
79365;SDS011;68833;53.160;17.920;2023-10-09T08:09:51;3.90;;;3.50;;
79365;SDS011;68833;53.160;17.920;2023-10-09T08:12:37;3.10;;;2.40;;
79365;SDS011;68833;53.160;17.920;2023-10-09T08:15:11;2.80;;;2.30;;
79365;SDS011;68833;53.160;17.920;2023-10-09T08:17:47;3.60;;;2.70;;
79365;SDS011;68833;53.160;17.920;2023-10-09T08:20:25;3.20;;;2.70;;
79365;SDS011;68833;53.160;17.920;2023-10-09T08:22:55;3.10;;;2.40;;
79365;SDS011;68833;53.160;17.920;2023-10-09T08:25:22;4.30;;;3.80;;
79365;SDS011;68833;53.160;17.920;2023-10-09T08:27:54;5.00;;;3.90;;
79365;SDS011;68833;53.160;17.920;2023-10-09T08:30:22;5.70;;;4.10;;
79365;SDS011;68833;53.160;17.920;2023-10-09T08:32:52;4.00;;;3.20;;
79365;SDS011;68833;53.160;17.920;2023-10-09T08:35:35;4.20;;;3.40;;
79365;SDS011;68833;53.160;17.920;2023-10-09T08:38:16;4.00;;;3.30;;
79365;SDS011;68833;53.160;17.920;2023-10-09T08:40:51;3.60;;;3.30;;
79365;SDS011;68833;53.160;17.920;2023-10-09T08:43:25;2.90;;;2.60;;
79365;SDS011;68833;53.160;17.920;2023-10-09T08:45:56;2.80;;;2.50;;
79365;SDS011;68833;53.160;17.920;2023-10-09T08:48:29;2.60;;;2.40;;
79365;SDS011;68833;53.160;17.920;2023-10-09T08:50:56;3.10;;;2.70;;
79365;SDS011;68833;53.160;17.920;2023-10-09T08:53:24;3.30;;;2.50;;
79365;SDS011;68833;53.160;17.920;2023-10-09T08:58:22;3.40;;;2.10;;
79365;SDS011;68833;53.160;17.920;2023-10-09T09:00:59;2.50;;;2.30;;
79365;SDS011;68833;53.160;17.920;2023-10-09T09:03:29;2.50;;;2.30;;
79365;SDS011;68833;53.160;17.920;2023-10-09T09:06:04;2.80;;;2.60;;
79365;SDS011;68833;53.160;17.920;2023-10-09T09:08:32;3.00;;;2.30;;
79365;SDS011;68833;53.160;17.920;2023-10-09T09:11:13;3.10;;;2.40;;
79365;SDS011;68833;53.160;17.920;2023-10-09T09:13:44;3.50;;;2.60;;
79365;SDS011;68833;53.160;17.920;2023-10-09T09:16:22;2.80;;;2.40;;
79365;SDS011;68833;53.160;17.920;2023-10-09T09:18:58;4.20;;;3.80;;
79365;SDS011;68833;53.160;17.920;2023-10-09T09:21:32;2.40;;;2.20;;
79365;SDS011;68833;53.160;17.920;2023-10-09T09:24:11;2.20;;;1.80;;
79365;SDS011;68833;53.160;17.920;2023-10-09T09:26:48;1.80;;;1.60;;
79365;SDS011;68833;53.160;17.920;2023-10-09T09:32:06;9.50;;;7.70;;
79365;SDS011;68833;53.160;17.920;2023-10-09T09:34:50;11.90;;;9.60;;
79365;SDS011;68833;53.160;17.920;2023-10-09T09:37:27;6.80;;;5.30;;
79365;SDS011;68833;53.160;17.920;2023-10-09T09:39:58;7.50;;;6.70;;
79365;SDS011;68833;53.160;17.920;2023-10-09T09:42:27;5.60;;;4.70;;
79365;SDS011;68833;53.160;17.920;2023-10-09T09:45:01;3.00;;;2.70;;
79365;SDS011;68833;53.160;17.920;2023-10-09T09:47:31;2.40;;;2.20;;
79365;SDS011;68833;53.160;17.920;2023-10-09T09:50:02;3.00;;;2.20;;
79365;SDS011;68833;53.160;17.920;2023-10-09T09:52:39;3.40;;;2.80;;
79365;SDS011;68833;53.160;17.920;2023-10-09T09:55:07;2.00;;;1.80;;
79365;SDS011;68833;53.160;17.920;2023-10-09T09:57:49;2.40;;;2.00;;
79365;SDS011;68833;53.160;17.920;2023-10-09T10:04:04;3.70;;;3.40;;
79365;SDS011;68833;53.160;17.920;2023-10-09T10:06:40;3.70;;;3.10;;
79365;SDS011;68833;53.160;17.920;2023-10-09T10:09:21;2.50;;;2.20;;
79365;SDS011;68833;53.160;17.920;2023-10-09T10:12:05;2.80;;;2.50;;
79365;SDS011;68833;53.160;17.920;2023-10-09T10:17:19;2.50;;;2.10;;
79365;SDS011;68833;53.160;17.920;2023-10-09T10:22:47;2.50;;;2.00;;
79365;SDS011;68833;53.160;17.920;2023-10-09T10:31:04;1.90;;;1.70;;
79365;SDS011;68833;53.160;17.920;2023-10-09T10:34:02;3.00;;;1.80;;
79365;SDS011;68833;53.160;17.920;2023-10-09T10:36:22;2.00;;;1.50;;
79365;SDS011;68833;53.160;17.920;2023-10-09T10:39:07;1.80;;;1.60;;
79365;SDS011;68833;53.160;17.920;2023-10-09T10:41:55;3.60;;;2.40;;
79365;SDS011;68833;53.160;17.920;2023-10-09T10:44:26;4.90;;;3.10;;
79365;SDS011;68833;53.160;17.920;2023-10-09T10:47:00;2.80;;;2.20;;
79365;SDS011;68833;53.160;17.920;2023-10-09T10:49:27;2.90;;;2.50;;
79365;SDS011;68833;53.160;17.920;2023-10-09T10:52:02;2.00;;;1.60;;
79365;SDS011;68833;53.160;17.920;2023-10-09T10:54:49;1.50;;;1.40;;
79365;SDS011;68833;53.160;17.920;2023-10-09T10:57:41;1.80;;;1.40;;
79365;SDS011;68833;53.160;17.920;2023-10-09T11:00:27;3.30;;;2.10;;
79365;SDS011;68833;53.160;17.920;2023-10-09T11:03:19;3.20;;;2.30;;
79365;SDS011;68833;53.160;17.920;2023-10-09T11:05:56;2.60;;;1.90;;
79365;SDS011;68833;53.160;17.920;2023-10-09T11:08:43;2.10;;;1.70;;
79365;SDS011;68833;53.160;17.920;2023-10-09T11:11:23;1.60;;;1.40;;
79365;SDS011;68833;53.160;17.920;2023-10-09T11:14:07;1.80;;;1.50;;
79365;SDS011;68833;53.160;17.920;2023-10-09T11:16:35;2.30;;;1.70;;
79365;SDS011;68833;53.160;17.920;2023-10-09T11:19:11;1.70;;;1.60;;
79365;SDS011;68833;53.160;17.920;2023-10-09T11:21:53;1.60;;;1.10;;
79365;SDS011;68833;53.160;17.920;2023-10-09T11:24:35;1.50;;;1.40;;
79365;SDS011;68833;53.160;17.920;2023-10-09T11:27:03;2.40;;;1.60;;
79365;SDS011;68833;53.160;17.920;2023-10-09T11:29:34;1.90;;;1.30;;
79365;SDS011;68833;53.160;17.920;2023-10-09T11:32:17;1.60;;;1.40;;
79365;SDS011;68833;53.160;17.920;2023-10-09T11:34:46;1.30;;;1.00;;
79365;SDS011;68833;53.160;17.920;2023-10-09T11:39:58;1.70;;;1.30;;
79365;SDS011;68833;53.160;17.920;2023-10-09T11:42:27;2.00;;;1.20;;
79365;SDS011;68833;53.160;17.920;2023-10-09T11:45:22;1.30;;;1.10;;
79365;SDS011;68833;53.160;17.920;2023-10-09T11:47:51;1.30;;;1.10;;
79365;SDS011;68833;53.160;17.920;2023-10-09T11:50:38;1.60;;;1.40;;
79365;SDS011;68833;53.160;17.920;2023-10-09T11:53:42;2.20;;;1.40;;
79365;SDS011;68833;53.160;17.920;2023-10-09T11:56:23;1.50;;;1.10;;
79365;SDS011;68833;53.160;17.920;2023-10-09T11:58:52;1.60;;;1.10;;
79365;SDS011;68833;53.160;17.920;2023-10-09T12:01:20;1.30;;;0.90;;
79365;SDS011;68833;53.160;17.920;2023-10-09T12:03:47;1.30;;;1.10;;
79365;SDS011;68833;53.160;17.920;2023-10-09T12:06:18;1.60;;;1.40;;
79365;SDS011;68833;53.160;17.920;2023-10-09T12:08:48;1.30;;;1.00;;
79365;SDS011;68833;53.160;17.920;2023-10-09T12:11:15;8.40;;;7.60;;
79365;SDS011;68833;53.160;17.920;2023-10-09T12:13:48;2.40;;;1.50;;
79365;SDS011;68833;53.160;17.920;2023-10-09T12:16:15;2.70;;;2.00;;
79365;SDS011;68833;53.160;17.920;2023-10-09T12:18:41;1.80;;;1.30;;
79365;SDS011;68833;53.160;17.920;2023-10-09T12:21:08;2.20;;;1.40;;
79365;SDS011;68833;53.160;17.920;2023-10-09T12:23:41;1.60;;;1.10;;
79365;SDS011;68833;53.160;17.920;2023-10-09T12:26:10;1.70;;;1.00;;
79365;SDS011;68833;53.160;17.920;2023-10-09T12:28:41;1.60;;;1.10;;
79365;SDS011;68833;53.160;17.920;2023-10-09T12:31:12;4.50;;;3.80;;
79365;SDS011;68833;53.160;17.920;2023-10-09T12:33:41;3.70;;;2.90;;
79365;SDS011;68833;53.160;17.920;2023-10-09T12:36:11;1.50;;;1.30;;
79365;SDS011;68833;53.160;17.920;2023-10-09T12:38:46;2.10;;;1.60;;
79365;SDS011;68833;53.160;17.920;2023-10-09T12:41:16;2.00;;;1.50;;
79365;SDS011;68833;53.160;17.920;2023-10-09T12:43:46;2.00;;;1.00;;
79365;SDS011;68833;53.160;17.920;2023-10-09T12:46:13;1.70;;;1.10;;
79365;SDS011;68833;53.160;17.920;2023-10-09T12:48:45;1.30;;;1.20;;
79365;SDS011;68833;53.160;17.920;2023-10-09T12:51:14;1.90;;;0.80;;
79365;SDS011;68833;53.160;17.920;2023-10-09T12:53:44;1.20;;;1.00;;
79365;SDS011;68833;53.160;17.920;2023-10-09T12:56:11;1.30;;;0.90;;
79365;SDS011;68833;53.160;17.920;2023-10-09T12:58:38;1.50;;;0.80;;
79365;SDS011;68833;53.160;17.920;2023-10-09T13:01:05;1.10;;;0.80;;
79365;SDS011;68833;53.160;17.920;2023-10-09T13:03:38;1.20;;;0.90;;
79365;SDS011;68833;53.160;17.920;2023-10-09T13:06:04;1.00;;;0.80;;
79365;SDS011;68833;53.160;17.920;2023-10-09T13:08:36;1.00;;;0.70;;
79365;SDS011;68833;53.160;17.920;2023-10-09T13:11:07;0.90;;;0.80;;
79365;SDS011;68833;53.160;17.920;2023-10-09T13:13:38;1.00;;;0.80;;
79365;SDS011;68833;53.160;17.920;2023-10-09T13:16:16;0.90;;;0.80;;
79365;SDS011;68833;53.160;17.920;2023-10-09T13:18:50;1.60;;;1.20;;
79365;SDS011;68833;53.160;17.920;2023-10-09T13:21:21;1.20;;;1.00;;
79365;SDS011;68833;53.160;17.920;2023-10-09T13:23:49;0.90;;;0.60;;
79365;SDS011;68833;53.160;17.920;2023-10-09T13:26:17;0.80;;;0.60;;
79365;SDS011;68833;53.160;17.920;2023-10-09T13:28:45;1.00;;;0.80;;
79365;SDS011;68833;53.160;17.920;2023-10-09T13:31:15;1.80;;;1.30;;
79365;SDS011;68833;53.160;17.920;2023-10-09T13:33:43;2.00;;;1.80;;
79365;SDS011;68833;53.160;17.920;2023-10-09T13:36:11;1.10;;;0.80;;
79365;SDS011;68833;53.160;17.920;2023-10-09T13:38:55;1.60;;;0.90;;
79365;SDS011;68833;53.160;17.920;2023-10-09T13:41:43;1.00;;;1.00;;
79365;SDS011;68833;53.160;17.920;2023-10-09T13:44:10;0.90;;;0.70;;
79365;SDS011;68833;53.160;17.920;2023-10-09T13:46:36;5.70;;;5.20;;
79365;SDS011;68833;53.160;17.920;2023-10-09T13:49:08;2.70;;;1.80;;
79365;SDS011;68833;53.160;17.920;2023-10-09T13:51:38;1.20;;;1.10;;
79365;SDS011;68833;53.160;17.920;2023-10-09T13:54:10;1.70;;;0.70;;
79365;SDS011;68833;53.160;17.920;2023-10-09T13:56:46;1.00;;;0.70;;
79365;SDS011;68833;53.160;17.920;2023-10-09T13:59:22;0.90;;;0.70;;
79365;SDS011;68833;53.160;17.920;2023-10-09T14:01:51;1.20;;;0.70;;
79365;SDS011;68833;53.160;17.920;2023-10-09T14:04:23;1.30;;;0.80;;
79365;SDS011;68833;53.160;17.920;2023-10-09T14:06:50;1.80;;;1.10;;
79365;SDS011;68833;53.160;17.920;2023-10-09T14:09:28;0.90;;;0.70;;
79365;SDS011;68833;53.160;17.920;2023-10-09T14:12:00;0.70;;;0.70;;
79365;SDS011;68833;53.160;17.920;2023-10-09T14:14:38;1.10;;;0.90;;
79365;SDS011;68833;53.160;17.920;2023-10-09T14:17:07;1.00;;;0.70;;
79365;SDS011;68833;53.160;17.920;2023-10-09T14:19:43;1.40;;;1.20;;
79365;SDS011;68833;53.160;17.920;2023-10-09T14:22:16;1.60;;;1.40;;
79365;SDS011;68833;53.160;17.920;2023-10-09T14:24:47;2.10;;;1.70;;
79365;SDS011;68833;53.160;17.920;2023-10-09T14:27:21;1.40;;;1.20;;
79365;SDS011;68833;53.160;17.920;2023-10-09T14:29:55;1.80;;;0.90;;
79365;SDS011;68833;53.160;17.920;2023-10-09T14:35:09;1.20;;;1.00;;
79365;SDS011;68833;53.160;17.920;2023-10-09T14:37:39;1.50;;;0.80;;
79365;SDS011;68833;53.160;17.920;2023-10-09T14:40:06;2.30;;;1.40;;
79365;SDS011;68833;53.160;17.920;2023-10-09T14:42:39;1.10;;;0.90;;
79365;SDS011;68833;53.160;17.920;2023-10-09T14:45:10;1.40;;;1.10;;
79365;SDS011;68833;53.160;17.920;2023-10-09T14:47:42;1.80;;;1.10;;
79365;SDS011;68833;53.160;17.920;2023-10-09T14:50:08;2.30;;;1.20;;
79365;SDS011;68833;53.160;17.920;2023-10-09T14:52:35;1.70;;;1.20;;
79365;SDS011;68833;53.160;17.920;2023-10-09T14:55:05;1.90;;;1.00;;
79365;SDS011;68833;53.160;17.920;2023-10-09T14:57:32;1.70;;;1.00;;
79365;SDS011;68833;53.160;17.920;2023-10-09T15:00:01;2.20;;;1.00;;
79365;SDS011;68833;53.160;17.920;2023-10-09T15:02:33;1.90;;;1.30;;
79365;SDS011;68833;53.160;17.920;2023-10-09T15:04:59;2.00;;;1.50;;
79365;SDS011;68833;53.160;17.920;2023-10-09T15:07:26;3.20;;;1.90;;
79365;SDS011;68833;53.160;17.920;2023-10-09T15:09:54;2.30;;;1.90;;
79365;SDS011;68833;53.160;17.920;2023-10-09T15:12:20;2.10;;;1.90;;
79365;SDS011;68833;53.160;17.920;2023-10-09T15:14:48;1.90;;;1.30;;
79365;SDS011;68833;53.160;17.920;2023-10-09T15:17:19;1.30;;;1.00;;
79365;SDS011;68833;53.160;17.920;2023-10-09T15:19:45;1.90;;;1.10;;
79365;SDS011;68833;53.160;17.920;2023-10-09T15:22:11;1.60;;;1.00;;
79365;SDS011;68833;53.160;17.920;2023-10-09T15:24:38;1.70;;;1.10;;
79365;SDS011;68833;53.160;17.920;2023-10-09T15:27:04;1.10;;;1.00;;
79365;SDS011;68833;53.160;17.920;2023-10-09T15:29:31;1.60;;;1.50;;
79365;SDS011;68833;53.160;17.920;2023-10-09T15:32:00;1.90;;;1.60;;
79365;SDS011;68833;53.160;17.920;2023-10-09T15:34:47;2.00;;;1.60;;
79365;SDS011;68833;53.160;17.920;2023-10-09T15:37:13;3.10;;;2.80;;
79365;SDS011;68833;53.160;17.920;2023-10-09T15:39:40;5.40;;;4.70;;
79365;SDS011;68833;53.160;17.920;2023-10-09T15:42:07;5.00;;;4.50;;
79365;SDS011;68833;53.160;17.920;2023-10-09T15:44:34;7.80;;;7.00;;
79365;SDS011;68833;53.160;17.920;2023-10-09T15:47:02;7.00;;;6.40;;
79365;SDS011;68833;53.160;17.920;2023-10-09T15:49:34;5.30;;;4.80;;
79365;SDS011;68833;53.160;17.920;2023-10-09T15:52:07;9.20;;;8.30;;
79365;SDS011;68833;53.160;17.920;2023-10-09T15:54:34;10.20;;;9.10;;
79365;SDS011;68833;53.160;17.920;2023-10-09T15:57:01;9.30;;;8.40;;
79365;SDS011;68833;53.160;17.920;2023-10-09T15:59:27;11.30;;;10.10;;
79365;SDS011;68833;53.160;17.920;2023-10-09T16:03:36;11.80;;;10.70;;
79365;SDS011;68833;53.160;17.920;2023-10-09T16:06:03;12.20;;;11.00;;
79365;SDS011;68833;53.160;17.920;2023-10-09T16:08:31;11.60;;;10.50;;
79365;SDS011;68833;53.160;17.920;2023-10-09T16:10:59;9.60;;;8.70;;
79365;SDS011;68833;53.160;17.920;2023-10-09T16:13:25;10.20;;;9.20;;
79365;SDS011;68833;53.160;17.920;2023-10-09T16:15:54;7.80;;;7.10;;
79365;SDS011;68833;53.160;17.920;2023-10-09T16:18:26;6.70;;;6.10;;
79365;SDS011;68833;53.160;17.920;2023-10-09T16:20:56;5.80;;;5.00;;
79365;SDS011;68833;53.160;17.920;2023-10-09T16:23:23;5.90;;;4.80;;
79365;SDS011;68833;53.160;17.920;2023-10-09T16:25:50;5.70;;;5.10;;